Time;durP1;ratioP1;P1;durP2;ratioP2;P2;SDS_P1;SDS_P2;PMS_P1;PMS_P2;Temp;Humidity;BMP_temperature;BMP_pressure;BME280_temperature;BME280_humidity;BME280_pressure;Samples;Min_cycle;Max_cycle;Signal;HPM_P1;HPM_P2
2022/01/28 00:02:31;;;;;;;30.87;15.03;;;3.10;99.90;;;;;;5021872;28;20985;-70
2022/01/28 00:04:55;;;;;;;21.10;13.40;;;3.10;99.90;;;;;;5020918;28;20454;-70
2022/01/28 00:07:21;;;;;;;16.17;9.87;;;3.10;99.90;;;;;;5020863;28;22659;-71
2022/01/28 00:09:46;;;;;;;20.20;11.87;;;3.10;99.90;;;;;;5018762;28;20276;-71
2022/01/28 00:12:13;;;;;;;18.33;10.73;;;3.20;99.90;;;;;;5024329;28;20533;-71
2022/01/28 00:15:05;;;;;;;25.10;13.63;;;3.20;99.90;;;;;;5022517;28;20271;-71
2022/01/28 00:39:13;;;;;;;26.07;13.27;;;3.40;99.90;;;;;;4955943;28;20841;-71
2022/01/28 00:41:39;;;;;;;19.67;10.97;;;3.40;99.90;;;;;;5013847;28;20482;-71
2022/01/28 00:44:05;;;;;;;24.50;13.90;;;3.50;99.90;;;;;;5021855;28;20848;-71
2022/01/28 00:46:30;;;;;;;23.90;13.47;;;3.40;99.90;;;;;;5019183;28;20188;-71
2022/01/28 00:48:56;;;;;;;24.17;13.53;;;3.40;99.90;;;;;;5024007;28;20462;-70
2022/01/28 00:51:22;;;;;;;19.60;12.70;;;3.40;99.90;;;;;;5027381;28;20176;-72
2022/01/28 00:53:48;;;;;;;25.30;14.40;;;3.40;99.90;;;;;;5025755;28;20183;-71
2022/01/28 00:56:14;;;;;;;22.40;12.53;;;3.40;99.90;;;;;;5026522;28;20456;-71
2022/01/28 00:58:39;;;;;;;20.47;11.73;;;3.40;99.90;;;;;;5028304;28;20446;-71
2022/01/28 01:01:05;;;;;;;25.10;14.73;;;3.50;99.90;;;;;;5024390;28;20230;-71
2022/01/28 01:03:31;;;;;;;22.33;13.93;;;3.50;99.90;;;;;;5029263;28;20187;-70
2022/01/28 01:05:57;;;;;;;24.43;13.13;;;3.50;99.90;;;;;;5010731;28;20188;-71
2022/01/28 01:08:22;;;;;;;19.73;11.53;;;3.50;99.90;;;;;;5028012;28;20471;-71
2022/01/28 01:10:50;;;;;;;20.90;12.80;;;3.50;99.90;;;;;;5032316;28;20199;-71
2022/01/28 01:13:15;;;;;;;22.53;12.03;;;3.60;99.90;;;;;;5028290;28;20182;-71
2022/01/28 01:15:45;;;;;;;24.43;11.53;;;3.60;99.90;;;;;;5028400;28;21214;-71
2022/01/28 01:18:29;;;;;;;16.67;11.90;;;3.60;99.90;;;;;;5029501;28;20209;-71
2022/01/28 01:23:34;;;;;;;18.30;11.13;;;3.50;99.90;;;;;;5028134;28;20983;-71
2022/01/28 01:26:11;;;;;;;24.13;13.17;;;3.50;99.90;;;;;;5025722;28;20223;-71
2022/01/28 01:28:40;;;;;;;23.27;14.27;;;3.50;99.90;;;;;;5028496;28;20474;-71
2022/01/28 01:31:11;;;;;;;22.20;13.63;;;3.50;99.90;;;;;;5027709;28;20433;-71
2022/01/28 01:33:48;;;;;;;25.50;13.03;;;3.60;99.90;;;;;;5026187;28;20516;-72
2022/01/28 01:36:14;;;;;;;19.73;12.03;;;3.60;99.90;;;;;;5024098;28;21096;-71
2022/01/28 01:38:41;;;;;;;21.80;12.23;;;3.50;99.90;;;;;;5030169;28;20541;-71
2022/01/28 01:41:12;;;;;;;18.43;11.60;;;3.60;99.90;;;;;;5025323;28;20962;-72
2022/01/28 01:44:01;;;;;;;16.47;11.07;;;3.50;99.90;;;;;;5028433;28;20933;-72
2022/01/28 01:54:27;;;;;;;21.13;12.97;;;3.70;99.90;;;;;;5026144;28;20481;-71
2022/01/28 01:56:55;;;;;;;21.60;13.50;;;3.70;99.90;;;;;;5025856;28;20452;-71
2022/01/28 01:59:20;;;;;;;22.77;12.73;;;3.70;99.90;;;;;;5029185;28;20446;-71
2022/01/28 02:01:46;;;;;;;20.23;12.40;;;3.70;99.90;;;;;;5027822;28;20431;-71
2022/01/28 02:04:12;;;;;;;22.80;11.93;;;3.70;99.90;;;;;;5029780;28;20458;-72
2022/01/28 02:06:40;;;;;;;20.77;12.30;;;3.80;99.90;;;;;;5022596;28;20658;-72
2022/01/28 02:09:07;;;;;;;25.50;13.00;;;3.80;99.90;;;;;;5028891;28;20204;-71
2022/01/28 02:11:33;;;;;;;22.73;13.17;;;3.70;99.90;;;;;;5007290;28;20917;-71
2022/01/28 02:13:59;;;;;;;21.30;11.73;;;3.70;99.90;;;;;;5028180;28;20608;-71
2022/01/28 02:16:24;;;;;;;21.80;11.73;;;3.70;99.90;;;;;;5027678;28;20516;-71
2022/01/28 02:18:50;;;;;;;21.43;13.30;;;3.70;99.90;;;;;;5027359;28;20203;-71
2022/01/28 02:21:17;;;;;;;25.10;14.13;;;3.70;99.90;;;;;;5028645;28;20184;-71
2022/01/28 02:23:48;;;;;;;27.50;13.93;;;3.70;99.90;;;;;;5026562;28;20316;-71
2022/01/28 02:26:16;;;;;;;21.93;12.10;;;3.80;99.90;;;;;;5031381;28;20508;-72
2022/01/28 02:28:44;;;;;;;28.00;13.53;;;3.80;99.90;;;;;;5008313;28;20527;-72
2022/01/28 02:31:10;;;;;;;22.50;13.57;;;3.80;99.90;;;;;;5026238;28;20450;-73
2022/01/28 02:33:35;;;;;;;23.37;14.50;;;3.80;99.90;;;;;;5010500;28;20987;-72
2022/01/28 02:36:06;;;;;;;25.43;14.67;;;3.90;99.90;;;;;;5026128;28;20193;-73
2022/01/28 02:38:34;;;;;;;23.70;14.43;;;3.90;99.90;;;;;;5023316;28;20187;-71
2022/01/28 02:41:01;;;;;;;25.03;13.20;;;4.00;99.90;;;;;;5023792;28;20518;-71
2022/01/28 02:43:42;;;;;;;24.33;15.37;;;4.00;99.90;;;;;;5025223;28;20967;-72
2022/01/28 02:46:17;;;;;;;21.63;13.07;;;3.90;99.90;;;;;;5008489;28;20517;-71
2022/01/28 02:48:54;;;;;;;26.93;12.77;;;3.90;99.90;;;;;;5023337;28;20481;-71
2022/01/28 02:51:22;;;;;;;20.97;11.60;;;3.90;99.90;;;;;;5026451;28;20476;-72
2022/01/28 02:58:45;;;;;;;16.23;10.27;;;3.90;99.90;;;;;;5027337;28;20959;-73
2022/01/28 03:01:13;;;;;;;18.70;10.70;;;3.90;99.90;;;;;;5019314;28;20438;-72
2022/01/28 03:03:40;;;;;;;23.90;13.20;;;3.90;99.90;;;;;;5024136;28;20454;-71
2022/01/28 03:06:05;;;;;;;23.60;13.63;;;3.80;99.90;;;;;;5025837;28;20434;-71
2022/01/28 03:08:31;;;;;;;19.50;11.83;;;3.90;99.90;;;;;;5025786;28;20497;-71
2022/01/28 03:16:12;;;;;;;24.97;13.23;;;3.90;99.90;;;;;;5023760;28;20234;-72
2022/01/28 03:19:24;;;;;;;25.57;14.40;;;3.90;99.90;;;;;;5025910;28;20500;-71
2022/01/28 03:23:56;;;;;;;17.53;9.63;;;4.00;99.90;;;;;;5026772;28;20557;-71
2022/01/28 03:26:27;;;;;;;23.00;13.23;;;3.90;99.90;;;;;;5024861;28;20636;-71
2022/01/28 03:28:53;;;;;;;19.47;12.30;;;4.00;99.90;;;;;;5026163;28;20449;-71
2022/01/28 03:31:19;;;;;;;13.27;8.37;;;4.00;99.90;;;;;;5025235;28;21097;-71
2022/01/28 03:33:45;;;;;;;23.80;13.03;;;4.00;99.90;;;;;;5025312;28;20326;-71
2022/01/28 03:36:12;;;;;;;21.77;11.70;;;4.00;99.90;;;;;;5029213;28;21011;-70
2022/01/28 03:38:40;;;;;;;25.70;13.87;;;4.00;99.90;;;;;;5022839;28;20516;-71
2022/01/28 03:41:12;;;;;;;23.77;14.13;;;4.00;99.90;;;;;;5008449;28;20439;-71
2022/01/28 03:43:39;;;;;;;24.47;12.13;;;4.00;99.90;;;;;;5027668;28;21072;-71
2022/01/28 03:46:04;;;;;;;20.07;10.83;;;4.00;99.90;;;;;;5022928;28;21182;-71
2022/01/28 03:48:30;;;;;;;29.10;14.07;;;4.00;99.90;;;;;;5023227;28;20479;-72
2022/01/28 03:50:56;;;;;;;31.70;13.13;;;3.90;99.90;;;;;;5023017;28;20193;-71
2022/01/28 03:53:21;;;;;;;21.57;11.80;;;4.00;99.90;;;;;;5024010;28;20623;-71
2022/01/28 03:55:47;;;;;;;19.93;10.40;;;4.00;99.90;;;;;;5021623;28;20212;-71
2022/01/28 03:58:16;;;;;;;27.40;14.70;;;4.00;99.90;;;;;;5018938;28;20299;-71
2022/01/28 04:00:42;;;;;;;27.60;14.10;;;3.90;99.90;;;;;;5023796;28;20177;-71
2022/01/28 04:03:24;;;;;;;27.77;14.57;;;4.00;99.90;;;;;;5023013;28;20523;-71
2022/01/28 04:13:52;;;;;;;20.80;11.90;;;4.00;99.90;;;;;;5023761;28;20477;-71
2022/01/28 04:19:03;;;;;;;24.80;12.67;;;3.90;99.90;;;;;;5023200;28;20940;-72
2022/01/28 04:21:29;;;;;;;23.47;13.80;;;3.90;99.90;;;;;;5026296;28;20457;-72
2022/01/28 04:23:55;;;;;;;26.80;12.90;;;3.90;99.90;;;;;;5022841;28;20470;-71
2022/01/28 04:26:21;;;;;;;31.13;15.20;;;3.90;99.90;;;;;;5026055;28;20428;-71
2022/01/28 04:28:46;;;;;;;30.53;14.20;;;3.90;99.90;;;;;;5023489;28;20860;-71
2022/01/28 04:31:12;;;;;;;26.30;14.47;;;3.90;99.90;;;;;;5023735;28;20267;-71
2022/01/28 04:33:38;;;;;;;25.40;13.93;;;3.90;99.90;;;;;;5026317;28;20191;-71
2022/01/28 04:36:05;;;;;;;26.67;15.17;;;3.90;99.90;;;;;;5020976;28;20184;-70
2022/01/28 04:38:46;;;;;;;27.10;13.97;;;3.90;99.90;;;;;;5023454;28;20185;-72
2022/01/28 04:41:26;;;;;;;25.07;14.23;;;3.90;99.90;;;;;;5022255;28;20431;-71
2022/01/28 04:44:03;;;;;;;22.93;13.73;;;3.90;99.90;;;;;;5021054;28;21120;-71
2022/01/28 04:46:38;;;;;;;31.57;15.57;;;3.80;99.90;;;;;;5024100;28;20528;-71
2022/01/28 04:49:13;;;;;;;28.27;15.67;;;3.80;99.90;;;;;;5018620;28;20462;-71
2022/01/28 05:05:39;;;;;;;32.97;14.20;;;3.80;99.90;;;;;;5024104;28;20466;-71
2022/01/28 05:07:38;;;;;;;26.83;14.53;;;3.80;99.90;;;;;;5012664;28;20470;-71
2022/01/28 05:13:21;;;;;;;28.50;13.67;;;3.90;99.90;;;;;;5027528;28;20435;-71
2022/01/28 05:28:50;;;;;;;30.27;15.27;;;3.90;99.90;;;;;;5023823;28;20477;-71
2022/01/28 05:31:17;;;;;;;29.50;14.50;;;3.90;99.90;;;;;;5021637;28;20484;-71
2022/01/28 05:33:45;;;;;;;27.53;14.20;;;3.80;99.90;;;;;;5019073;28;20436;-71
2022/01/28 05:36:10;;;;;;;29.30;15.20;;;3.90;99.90;;;;;;5023463;28;21029;-70
2022/01/28 05:38:36;;;;;;;28.23;15.80;;;3.80;99.90;;;;;;5024535;28;20446;-70
2022/01/28 05:41:02;;;;;;;29.33;14.27;;;3.80;99.90;;;;;;5026268;28;20176;-70
2022/01/28 05:43:27;;;;;;;26.00;14.17;;;3.80;99.90;;;;;;4993978;28;20188;-71
2022/01/28 05:45:54;;;;;;;31.23;15.40;;;3.80;99.90;;;;;;5024538;28;20209;-71
2022/01/28 05:48:21;;;;;;;26.03;13.77;;;3.80;99.90;;;;;;5009693;28;20204;-70
2022/01/28 05:50:47;;;;;;;23.63;13.13;;;3.80;99.90;;;;;;5023801;28;20533;-71
2022/01/28 05:53:12;;;;;;;25.67;15.00;;;3.80;99.90;;;;;;5027469;28;20785;-71
2022/01/28 05:55:38;;;;;;;30.20;14.57;;;3.80;99.90;;;;;;5025159;28;20204;-71
2022/01/28 05:58:04;;;;;;;26.17;14.83;;;3.90;99.90;;;;;;5026929;28;20181;-70
2022/01/28 06:00:30;;;;;;;29.87;14.47;;;3.80;99.90;;;;;;5026454;28;20450;-71
2022/01/28 06:02:55;;;;;;;21.93;12.47;;;3.90;99.90;;;;;;5029257;28;20431;-70
2022/01/28 06:05:21;;;;;;;26.70;15.83;;;3.80;99.90;;;;;;5025030;28;20212;-70
2022/01/28 06:07:47;;;;;;;26.23;14.63;;;3.90;99.90;;;;;;5024461;28;20287;-70
2022/01/28 06:10:14;;;;;;;29.27;14.50;;;3.80;99.90;;;;;;5025643;28;20180;-70
2022/01/28 06:12:45;;;;;;;32.40;14.30;;;3.80;99.90;;;;;;5024737;28;20176;-71
2022/01/28 06:15:12;;;;;;;34.97;16.50;;;3.80;99.90;;;;;;5025902;28;20999;-71
2022/01/28 06:17:38;;;;;;;27.70;16.30;;;3.70;99.90;;;;;;5024948;28;20434;-71
2022/01/28 06:20:06;;;;;;;29.33;14.17;;;3.70;99.90;;;;;;5026168;28;20476;-70
2022/01/28 06:22:32;;;;;;;29.80;16.17;;;3.80;99.90;;;;;;5024867;28;20442;-70
2022/01/28 06:24:58;;;;;;;39.13;16.40;;;3.70;99.90;;;;;;5025392;28;20466;-70
2022/01/28 06:27:24;;;;;;;33.73;17.87;;;3.70;99.90;;;;;;5025428;28;20503;-71
2022/01/28 06:29:50;;;;;;;31.23;15.87;;;3.80;99.90;;;;;;4990454;28;20467;-71
2022/01/28 06:32:16;;;;;;;28.70;15.70;;;3.80;99.90;;;;;;5007622;28;20984;-71
2022/01/28 06:34:43;;;;;;;37.00;15.63;;;3.80;99.90;;;;;;5022920;28;20447;-70
2022/01/28 06:37:08;;;;;;;33.90;15.37;;;3.80;99.90;;;;;;5021329;28;20443;-70
2022/01/28 06:39:34;;;;;;;31.43;14.40;;;3.80;99.90;;;;;;5026134;28;20497;-71
2022/01/28 06:42:00;;;;;;;28.93;13.57;;;3.70;99.90;;;;;;5024245;28;20187;-71
2022/01/28 06:44:26;;;;;;;28.97;14.50;;;3.80;99.90;;;;;;5025212;28;20204;-71
2022/01/28 06:46:52;;;;;;;27.13;14.40;;;3.70;99.90;;;;;;5022795;28;20471;-71
2022/01/28 06:49:19;;;;;;;31.37;15.80;;;3.70;99.90;;;;;;5025681;28;20522;-71
2022/01/28 06:51:45;;;;;;;25.47;13.33;;;3.70;99.90;;;;;;5023613;28;20521;-71
2022/01/28 06:54:11;;;;;;;30.43;15.53;;;3.70;99.90;;;;;;5028470;28;20470;-71
2022/01/28 06:56:36;;;;;;;32.87;16.30;;;3.70;99.90;;;;;;5022525;28;20454;-70
2022/01/28 06:59:03;;;;;;;65.27;16.23;;;3.70;99.90;;;;;;5024200;28;20271;-72
2022/01/28 07:01:29;;;;;;;29.03;13.67;;;3.60;99.90;;;;;;5028200;28;20345;-71
2022/01/28 07:03:54;;;;;;;29.10;14.90;;;3.70;99.90;;;;;;5024432;28;20483;-72
2022/01/28 07:06:22;;;;;;;30.43;15.90;;;3.70;99.90;;;;;;5024772;28;20669;-72
2022/01/28 07:08:47;;;;;;;27.77;15.47;;;3.80;99.90;;;;;;5027721;28;22467;-72
2022/01/28 07:11:13;;;;;;;28.73;13.80;;;3.80;99.90;;;;;;5023419;28;20439;-71
2022/01/28 07:13:39;;;;;;;32.77;15.60;;;3.80;99.90;;;;;;5024157;28;20197;-71
2022/01/28 07:16:05;;;;;;;30.30;15.57;;;3.90;99.90;;;;;;5029029;28;20583;-71
2022/01/28 07:18:30;;;;;;;28.80;15.13;;;3.80;99.90;;;;;;5026156;28;20180;-72
2022/01/28 07:20:56;;;;;;;30.23;14.77;;;3.80;99.90;;;;;;5026774;28;20772;-72
2022/01/28 07:23:22;;;;;;;29.13;15.40;;;3.90;99.90;;;;;;5027632;28;20207;-71
2022/01/28 07:25:47;;;;;;;26.40;15.43;;;3.80;99.90;;;;;;5027918;28;20203;-71
2022/01/28 07:28:13;;;;;;;32.43;15.63;;;3.80;99.90;;;;;;5024022;28;20852;-70
2022/01/28 07:30:39;;;;;;;30.77;15.17;;;3.90;99.90;;;;;;5026490;28;20279;-72
2022/01/28 07:33:07;;;;;;;30.60;14.30;;;3.80;99.90;;;;;;5028035;28;20260;-72
2022/01/28 07:35:34;;;;;;;31.00;15.40;;;3.90;99.90;;;;;;5026456;28;20474;-71
2022/01/28 07:38:00;;;;;;;27.40;13.40;;;3.80;99.90;;;;;;5011665;28;20447;-71
2022/01/28 07:40:26;;;;;;;25.80;14.10;;;3.90;99.90;;;;;;5023746;28;20435;-72
2022/01/28 07:42:52;;;;;;;22.90;14.17;;;3.80;99.90;;;;;;5029041;28;21203;-72
2022/01/28 07:45:17;;;;;;;25.90;13.80;;;3.80;99.90;;;;;;5023158;28;20516;-71
2022/01/28 07:47:44;;;;;;;30.83;15.63;;;3.80;99.90;;;;;;5025155;28;20836;-71
2022/01/28 07:50:12;;;;;;;28.57;14.93;;;3.80;99.90;;;;;;5025464;28;20177;-72
2022/01/28 07:52:38;;;;;;;25.70;13.83;;;3.80;99.90;;;;;;5022226;28;20463;-72
2022/01/28 07:55:06;;;;;;;23.90;13.17;;;3.90;99.90;;;;;;5026688;28;20537;-71
2022/01/28 07:57:32;;;;;;;29.43;14.50;;;3.90;99.90;;;;;;5024299;28;20910;-71
2022/01/28 07:59:58;;;;;;;21.93;13.43;;;3.90;99.90;;;;;;5013949;28;20470;-71
2022/01/28 08:02:23;;;;;;;26.73;14.10;;;3.90;99.90;;;;;;5018944;28;20485;-71
2022/01/28 08:04:49;;;;;;;35.57;15.67;;;3.90;99.90;;;;;;5022492;28;20573;-71
2022/01/28 08:07:16;;;;;;;25.83;13.03;;;3.90;99.90;;;;;;5019839;28;20306;-71
2022/01/28 08:09:41;;;;;;;28.13;14.90;;;4.00;99.90;;;;;;5017306;28;20574;-71
2022/01/28 08:12:07;;;;;;;22.07;14.17;;;4.00;99.90;;;;;;5022866;28;20196;-71
2022/01/28 08:14:33;;;;;;;23.03;12.73;;;4.00;99.90;;;;;;5021070;28;20220;-72
2022/01/28 08:16:59;;;;;;;24.20;13.00;;;4.00;99.90;;;;;;5022572;28;20455;-70
2022/01/28 08:19:25;;;;;;;24.30;14.60;;;4.00;99.90;;;;;;5024111;28;20263;-72
2022/01/28 08:21:51;;;;;;;24.20;12.60;;;4.00;99.90;;;;;;5018928;28;20547;-72
2022/01/28 08:24:17;;;;;;;26.33;13.00;;;4.00;99.90;;;;;;5024056;28;20511;-71
2022/01/28 08:26:43;;;;;;;25.97;14.00;;;4.00;99.90;;;;;;5007305;28;20964;-71
2022/01/28 08:29:08;;;;;;;27.77;14.03;;;4.10;99.90;;;;;;5024642;28;20440;-72
2022/01/28 08:31:34;;;;;;;23.50;13.53;;;4.10;99.90;;;;;;5023656;28;20209;-71
2022/01/28 08:34:01;;;;;;;23.80;13.73;;;4.20;99.90;;;;;;5017758;28;20220;-71
2022/01/28 08:36:27;;;;;;;27.70;13.70;;;4.20;99.90;;;;;;5022380;28;20443;-71
2022/01/28 08:38:55;;;;;;;25.87;14.80;;;4.10;99.90;;;;;;5022515;28;20446;-71
2022/01/28 08:41:21;;;;;;;28.07;14.37;;;4.10;99.90;;;;;;5023825;28;20520;-70
2022/01/28 08:43:47;;;;;;;21.47;11.70;;;4.10;99.90;;;;;;5020591;28;20905;-72
2022/01/28 08:46:13;;;;;;;26.63;15.00;;;4.10;99.90;;;;;;5023222;28;20445;-71
2022/01/28 08:48:39;;;;;;;24.10;13.20;;;4.20;99.90;;;;;;5025690;28;20247;-71
2022/01/28 08:51:05;;;;;;;25.40;14.97;;;4.20;99.90;;;;;;5022480;28;20442;-71
2022/01/28 08:53:31;;;;;;;23.93;14.33;;;4.20;99.90;;;;;;5024486;28;20526;-71
2022/01/28 08:55:57;;;;;;;30.20;15.37;;;4.20;99.90;;;;;;5020861;28;20319;-71
2022/01/28 08:58:23;;;;;;;28.73;14.20;;;4.20;99.90;;;;;;5020131;28;20589;-73
2022/01/28 09:00:50;;;;;;;25.83;12.63;;;4.20;99.90;;;;;;5025193;28;20193;-72
2022/01/28 09:03:17;;;;;;;28.53;14.90;;;4.30;99.90;;;;;;5021578;28;20438;-72
2022/01/28 09:05:44;;;;;;;25.30;14.07;;;4.30;99.90;;;;;;5025695;28;20467;-72
2022/01/28 09:08:10;;;;;;;37.07;16.03;;;4.30;99.90;;;;;;5015194;28;20471;-71
2022/01/28 09:10:43;;;;;;;27.73;14.17;;;4.40;99.90;;;;;;5024705;28;20446;-72
2022/01/28 09:13:21;;;;;;;23.00;13.40;;;4.40;99.90;;;;;;5026889;28;20534;-71
2022/01/28 09:15:48;;;;;;;28.60;15.20;;;4.50;99.90;;;;;;5025579;28;20493;-72
2022/01/28 09:18:14;;;;;;;22.77;12.13;;;4.50;99.90;;;;;;5025107;28;20435;-70
2022/01/28 09:20:40;;;;;;;29.20;14.00;;;4.50;99.90;;;;;;5023389;28;20552;-71
2022/01/28 09:23:07;;;;;;;24.70;13.60;;;4.50;99.90;;;;;;5028985;28;20464;-72
2022/01/28 09:25:34;;;;;;;23.67;13.53;;;4.60;99.90;;;;;;5028010;28;22226;-72
2022/01/28 09:28:00;;;;;;;23.37;13.33;;;4.70;99.90;;;;;;5024353;28;20834;-72
2022/01/28 09:30:26;;;;;;;20.73;12.57;;;4.70;99.90;;;;;;5029059;28;20438;-72
2022/01/28 09:32:52;;;;;;;19.80;13.40;;;4.80;99.90;;;;;;5024577;28;21206;-71
2022/01/28 09:35:18;;;;;;;28.53;14.60;;;4.70;99.90;;;;;;5024199;28;20203;-73
2022/01/28 09:37:43;;;;;;;26.17;12.97;;;4.80;99.90;;;;;;5026369;28;20466;-73
2022/01/28 09:40:10;;;;;;;24.00;12.97;;;4.70;99.90;;;;;;5025726;28;20196;-72
2022/01/28 09:42:41;;;;;;;23.07;14.00;;;4.80;99.90;;;;;;5023980;28;20334;-73
2022/01/28 09:45:09;;;;;;;26.87;13.90;;;4.80;99.90;;;;;;5023232;28;20478;-72
2022/01/28 09:47:38;;;;;;;23.17;13.30;;;4.80;99.90;;;;;;5022796;28;20994;-72
2022/01/28 09:50:05;;;;;;;22.63;12.00;;;4.80;99.90;;;;;;5023526;28;20554;-72
2022/01/28 09:52:31;;;;;;;24.47;12.90;;;4.80;99.90;;;;;;5023723;28;20491;-73
2022/01/28 09:54:57;;;;;;;20.23;11.60;;;4.80;99.90;;;;;;5026532;28;20471;-73
2022/01/28 09:57:23;;;;;;;21.20;13.87;;;4.90;99.90;;;;;;5024711;28;20450;-72
2022/01/28 09:59:48;;;;;;;27.47;13.00;;;4.90;99.90;;;;;;5025074;28;20231;-72
2022/01/28 10:02:14;;;;;;;24.60;15.23;;;5.00;99.90;;;;;;5025836;28;21558;-73
2022/01/28 10:04:42;;;;;;;27.17;13.27;;;5.00;99.90;;;;;;5026158;28;20195;-74
2022/01/28 10:07:10;;;;;;;24.30;13.63;;;5.00;99.90;;;;;;5023892;28;20221;-73
2022/01/28 10:09:37;;;;;;;21.40;13.13;;;5.00;99.90;;;;;;5027424;28;20940;-74
2022/01/28 10:12:18;;;;;;;20.73;11.63;;;5.10;99.90;;;;;;5025780;28;20422;-74
2022/01/28 10:15:16;;;;;;;23.43;11.90;;;5.10;99.90;;;;;;5024060;28;20450;-74
2022/01/28 10:18:00;;;;;;;28.60;15.40;;;5.10;99.90;;;;;;5028332;28;20442;-74
2022/01/28 10:20:27;;;;;;;24.50;14.07;;;5.20;99.90;;;;;;5009880;28;20975;-75
2022/01/28 10:23:01;;;;;;;28.27;15.80;;;5.20;99.90;;;;;;5026295;28;20965;-74
2022/01/28 10:25:34;;;;;;;24.57;13.50;;;5.30;99.90;;;;;;5025418;28;20517;-74
2022/01/28 10:28:06;;;;;;;25.33;13.70;;;5.30;99.90;;;;;;5025864;28;20562;-74
2022/01/28 10:30:40;;;;;;;23.33;12.90;;;5.40;99.90;;;;;;5028293;28;22070;-74
2022/01/28 10:33:09;;;;;;;22.70;11.73;;;5.40;99.90;;;;;;5024282;28;20501;-74
2022/01/28 10:35:38;;;;;;;22.10;11.90;;;5.40;99.90;;;;;;5026847;28;20463;-74
2022/01/28 10:38:07;;;;;;;25.37;12.90;;;5.40;99.90;;;;;;5026432;28;20465;-75
2022/01/28 10:40:33;;;;;;;21.77;12.57;;;5.40;99.90;;;;;;5024484;28;20880;-74
2022/01/28 10:42:59;;;;;;;22.70;13.30;;;5.40;99.90;;;;;;5027985;28;20534;-73
2022/01/28 10:45:29;;;;;;;19.53;11.30;;;5.40;99.90;;;;;;5023679;28;21482;-74
2022/01/28 10:47:56;;;;;;;24.97;13.17;;;5.40;99.90;;;;;;5024203;28;20208;-73
2022/01/28 10:50:24;;;;;;;23.40;13.00;;;5.50;99.90;;;;;;5028080;28;20555;-73
2022/01/28 10:53:12;;;;;;;21.03;12.57;;;5.50;99.90;;;;;;5023408;28;20451;-72
2022/01/28 10:55:40;;;;;;;21.73;11.63;;;5.50;99.90;;;;;;5008468;28;20474;-71
2022/01/28 10:58:12;;;;;;;20.50;12.13;;;5.50;99.90;;;;;;5023752;28;20444;-72
2022/01/28 11:00:40;;;;;;;22.13;13.90;;;5.50;99.90;;;;;;5024479;28;20473;-72
2022/01/28 11:03:07;;;;;;;22.30;12.50;;;5.50;99.90;;;;;;5026359;28;20497;-72
2022/01/28 11:05:35;;;;;;;27.10;14.53;;;5.50;99.90;;;;;;5024070;28;20462;-73
2022/01/28 11:08:02;;;;;;;22.77;14.03;;;5.60;99.90;;;;;;5027096;28;20524;-73
2022/01/28 11:10:28;;;;;;;24.57;14.90;;;5.70;99.90;;;;;;5025385;28;20429;-73
2022/01/28 11:12:57;;;;;;;22.67;14.33;;;5.60;99.90;;;;;;5027971;28;20439;-71
2022/01/28 11:15:23;;;;;;;24.57;14.03;;;5.70;99.90;;;;;;5025076;28;21042;-71
2022/01/28 11:17:50;;;;;;;23.50;13.20;;;5.80;99.90;;;;;;5022235;28;20812;-72
2022/01/28 11:20:21;;;;;;;20.70;12.07;;;5.80;99.90;;;;;;5025477;28;20464;-72
2022/01/28 11:23:14;;;;;;;28.60;13.83;;;5.80;99.90;;;;;;5020372;28;20431;-71
2022/01/28 11:26:04;;;;;;;24.33;14.77;;;5.80;99.90;;;;;;5023408;28;21120;-71
2022/01/28 11:28:39;;;;;;;23.53;12.53;;;5.90;99.90;;;;;;5024052;28;20502;-71
2022/01/28 11:31:05;;;;;;;26.53;14.63;;;6.10;99.90;;;;;;5025301;28;20437;-71
2022/01/28 11:33:50;;;;;;;22.27;11.50;;;6.20;99.90;;;;;;5021650;28;20443;-71
2022/01/28 11:36:34;;;;;;;22.23;12.20;;;6.30;99.90;;;;;;5006422;28;20546;-71
2022/01/28 11:39:20;;;;;;;20.00;11.87;;;6.40;99.90;;;;;;5008356;28;22591;-72
2022/01/28 11:42:07;;;;;;;25.50;13.70;;;6.40;99.90;;;;;;5019307;28;20434;-72
2022/01/28 11:44:38;;;;;;;19.87;11.03;;;6.40;99.90;;;;;;5022468;28;20451;-72
2022/01/28 11:47:04;;;;;;;23.40;12.37;;;6.50;99.90;;;;;;5024089;28;21126;-72
2022/01/28 11:49:30;;;;;;;22.60;12.67;;;6.40;99.90;;;;;;5027134;28;20466;-72
2022/01/28 11:51:55;;;;;;;23.57;13.47;;;6.40;99.90;;;;;;5022738;28;20843;-73
2022/01/28 11:54:32;;;;;;;22.97;11.97;;;6.50;99.90;;;;;;5027825;28;20651;-72
2022/01/28 11:56:57;;;;;;;24.73;13.30;;;6.40;99.90;;;;;;5023782;28;20188;-72
2022/01/28 11:59:33;;;;;;;16.83;10.70;;;6.60;99.90;;;;;;5023053;28;21155;-72
2022/01/28 12:02:01;;;;;;;21.20;12.60;;;6.70;99.90;;;;;;5004429;28;20283;-76
2022/01/28 12:04:27;;;;;;;;;;;;;;;;;;;;;
2022/01/28 12:07:06;;;;;;;25.00;12.37;;;6.70;99.90;;;;;;5024029;28;20444;-75
2022/01/28 12:09:34;;;;;;;17.70;11.30;;;6.60;99.90;;;;;;5029725;28;20261;-74
2022/01/28 12:12:00;;;;;;;18.60;11.47;;;6.60;99.90;;;;;;5019471;28;20446;-74
2022/01/28 12:14:57;;;;;;;23.80;13.20;;;6.70;99.90;;;;;;5023583;28;20544;-72
2022/01/28 12:17:36;;;;;;;20.63;11.00;;;6.70;99.90;;;;;;5023557;28;20994;-71
2022/01/28 12:20:24;;;;;;;21.20;11.83;;;6.70;99.90;;;;;;5019522;28;20442;-71
2022/01/28 12:23:10;;;;;;;18.37;11.20;;;6.90;99.90;;;;;;5024507;28;20477;-72
2022/01/28 12:25:36;;;;;;;19.90;9.43;;;7.20;99.90;;;;;;5023472;28;20477;-73
2022/01/28 12:28:20;;;;;;;17.30;10.70;;;7.40;99.90;;;;;;5022744;28;20458;-72
2022/01/28 12:30:58;;;;;;;16.87;9.33;;;7.60;99.90;;;;;;5024509;28;20206;-72
2022/01/28 12:33:25;;;;;;;19.50;11.00;;;8.20;99.90;;;;;;5022814;28;20446;-72
2022/01/28 12:35:55;;;;;;;18.90;10.80;;;8.60;99.90;;;;;;5025977;28;20461;-72
2022/01/28 12:38:24;;;;;;;14.80;9.97;;;9.40;99.90;;;;;;5023304;28;20435;-72
2022/01/28 12:40:52;;;;;;;11.03;7.40;;;10.60;99.90;;;;;;5021337;28;20444;-72
2022/01/28 12:43:23;;;;;;;15.90;9.50;;;11.20;99.90;;;;;;5024513;28;20438;-71
2022/01/28 12:46:05;;;;;;;12.47;7.87;;;11.60;99.90;;;;;;5020784;28;20643;-72
2022/01/28 12:48:32;;;;;;;11.80;9.17;;;11.30;99.90;;;;;;5021894;28;20471;-71
2022/01/28 12:51:03;;;;;;;19.27;9.70;;;11.00;99.90;;;;;;5023913;28;20455;-72
2022/01/28 12:53:40;;;;;;;13.70;8.30;;;11.70;99.90;;;;;;5022571;28;20503;-72
2022/01/28 12:56:08;;;;;;;13.57;9.27;;;11.90;99.90;;;;;;5008668;28;20450;-72
2022/01/28 12:58:40;;;;;;;16.87;8.23;;;11.70;99.90;;;;;;5024272;28;20442;-71
2022/01/28 13:01:14;;;;;;;13.60;8.17;;;11.90;99.90;;;;;;5023996;28;20447;-71
2022/01/28 13:03:53;;;;;;;15.73;7.57;;;12.20;99.90;;;;;;5026021;28;20907;-71
2022/01/28 13:08:24;;;;;;;13.43;9.07;;;11.50;99.90;;;;;;5023349;28;20430;-71
2022/01/28 13:09:15;;;;;;;14.37;8.17;;;11.30;99.90;;;;;;5011123;28;20582;-71
2022/01/28 13:11:43;;;;;;;10.33;8.50;;;11.20;99.90;;;;;;5020866;28;20982;-70
2022/01/28 13:14:12;;;;;;;11.17;7.50;;;10.50;99.90;;;;;;5024699;28;20989;-71
2022/01/28 13:16:42;;;;;;;9.60;5.63;;;9.90;99.90;;;;;;5008265;28;20466;-72
2022/01/28 13:19:10;;;;;;;14.60;7.40;;;9.20;99.90;;;;;;5025159;28;20794;-71
2022/01/28 13:21:37;;;;;;;18.57;8.70;;;8.60;99.90;;;;;;5019704;28;20435;-73
2022/01/28 13:24:11;;;;;;;9.80;6.50;;;8.40;99.90;;;;;;5023721;28;20447;-72
2022/01/28 13:26:54;;;;;;;15.13;8.33;;;8.20;99.90;;;;;;5024557;28;20437;-69
2022/01/28 13:29:31;;;;;;;12.80;7.77;;;7.80;99.90;;;;;;5017667;28;20458;-70
2022/01/28 13:31:58;;;;;;;15.60;7.33;;;7.80;99.90;;;;;;5019046;28;20441;-69
2022/01/28 13:34:24;;;;;;;12.63;7.43;;;7.80;99.90;;;;;;5021648;28;20454;-69
2022/01/28 13:36:54;;;;;;;14.33;7.80;;;7.60;99.90;;;;;;5023481;28;20939;-69
2022/01/28 13:39:27;;;;;;;13.17;8.20;;;7.60;99.90;;;;;;5024558;28;20431;-69
2022/01/28 13:42:13;;;;;;;13.97;8.40;;;7.60;99.90;;;;;;5027306;28;20435;-69
2022/01/28 13:44:42;;;;;;;13.17;8.40;;;7.80;99.90;;;;;;5021741;28;20602;-69
2022/01/28 13:47:09;;;;;;;18.37;9.73;;;8.10;99.90;;;;;;5022312;28;20466;-69
2022/01/28 13:49:36;;;;;;;15.07;8.37;;;8.20;99.90;;;;;;5023014;28;20450;-68
2022/01/28 13:52:12;;;;;;;13.27;8.90;;;8.30;99.90;;;;;;5021801;28;20852;-69
2022/01/28 13:54:38;;;;;;;20.57;9.53;;;8.40;99.90;;;;;;5026110;28;20458;-69
2022/01/28 13:57:05;;;;;;;13.67;9.03;;;8.40;99.90;;;;;;5021535;28;20439;-70
2022/01/28 13:59:33;;;;;;;18.43;9.30;;;8.50;99.90;;;;;;5024915;28;20427;-68
2022/01/28 14:01:59;;;;;;;18.50;9.10;;;8.70;99.90;;;;;;5029895;28;20887;-69
2022/01/28 14:04:35;;;;;;;13.80;7.90;;;8.70;99.90;;;;;;5006393;28;20459;-69
2022/01/28 14:07:21;;;;;;;16.30;7.00;;;8.50;99.90;;;;;;5026717;28;20506;-69
2022/01/28 14:09:57;;;;;;;13.30;8.37;;;8.30;99.90;;;;;;5027005;28;20518;-69
2022/01/28 14:15:12;;;;;;;10.07;6.20;;;8.10;99.90;;;;;;5028683;28;20478;-69
2022/01/28 14:17:46;;;;;;;11.20;7.13;;;8.00;99.90;;;;;;5027334;28;20477;-69